Peshawbestown, Michigan
Current Conditions -  °F | °C
As of 4:53 AM on Saturday 20 Dec 2014 (Local Time) from KTVC Reporting Station
Overcast Overcast  
Wind Chill: 27°   Ceiling: 2300
Heat Index: 27°   Visibility: 10mi
Dew Point: 20°   Wind: 0mph
Humidity: 75%   Direction: NA
Pressure: 30.26"   Gusts: NA
Location:  44.9784°N, 85.6488°W
Report Text: KTVC 200953Z AUTO 00000KT 10SM OVC023 M03/M07 A3026 RMK AO2 SLP257 T10281067
Loading
Personal Weather Stations






























Interactive Weather Map New forecast layout! Learn more

10-Day Weather Forecast

Advertisements
Track Severe Weather on mobile